Time;durP1;ratioP1;P1;durP2;ratioP2;P2;SDS_P1;SDS_P2;PMS_P1;PMS_P2;Temp;Humidity;BMP_temperature;BMP_pressure;BME280_temperature;BME280_humidity;BME280_pressure;Samples;Min_cycle;Max_cycle;Signal;HPM_P1;HPM_P2
2024/01/28 00:02:20;;;;;;;;;;;;;;;19.70;42.98;97339.34;10464194;28;2902;-66
2024/01/28 00:07:20;;;;;;;;;;;;;;;19.65;45.32;97348.97;10465932;28;2781;-65
2024/01/28 00:12:20;;;;;;;;;;;;;;;19.58;46.28;97343.81;10463585;28;2955;-67
2024/01/28 00:17:21;;;;;;;;;;;;;;;19.56;46.74;97337.97;10466932;28;2866;-66
2024/01/28 00:22:21;;;;;;;;;;;;;;;19.57;43.04;97317.75;10467701;28;2902;-66
2024/01/28 00:27:21;;;;;;;;;;;;;;;19.57;44.66;97323.00;10471849;28;2847;-66
2024/01/28 00:32:22;;;;;;;;;;;;;;;19.55;43.72;97320.63;10471101;28;2798;-65
2024/01/28 00:37:23;;;;;;;;;;;;;;;19.53;43.77;97314.78;10471081;28;2920;-66
2024/01/28 00:42:24;;;;;;;;;;;;;;;19.52;42.33;97314.97;10471556;28;2826;-66
2024/01/28 00:47:24;;;;;;;;;;;;;;;19.53;43.95;97306.09;10472531;28;2805;-65
2024/01/28 00:52:24;;;;;;;;;;;;;;;19.50;44.08;97302.06;10477841;28;2873;-65
2024/01/28 00:57:25;;;;;;;;;;;;;;;19.48;41.13;97296.25;10474037;28;3214;-66
2024/01/28 01:02:25;;;;;;;;;;;;;;;19.40;44.48;97284.25;10469118;28;2876;-66
2024/01/28 01:07:25;;;;;;;;;;;;;;;19.36;45.39;97279.66;10468268;28;2903;-66
2024/01/28 01:12:26;;;;;;;;;;;;;;;19.34;46.05;97273.84;10500435;27;2827;-67
2024/01/28 01:17:26;;;;;;;;;;;;;;;19.30;46.18;97278.72;10468743;28;2927;-66
2024/01/28 01:22:28;;;;;;;;;;;;;;;19.27;46.69;97281.81;10471885;28;2849;-67
2024/01/28 01:27:29;;;;;;;;;;;;;;;19.24;46.72;97276.22;10469975;28;2827;-66
2024/01/28 01:32:29;;;;;;;;;;;;;;;19.20;46.66;97273.25;10466864;28;2913;-66
2024/01/28 01:37:29;;;;;;;;;;;;;;;19.18;47.12;97270.03;10470720;28;2923;-66
2024/01/28 01:42:30;;;;;;;;;;;;;;;19.14;46.67;97262.84;10471058;28;2774;-67
2024/01/28 01:47:30;;;;;;;;;;;;;;;19.12;47.04;97254.38;10472956;28;2890;-66
2024/01/28 01:52:31;;;;;;;;;;;;;;;19.15;45.24;97261.78;10468704;28;2889;-66
2024/01/28 01:57:31;;;;;;;;;;;;;;;19.17;45.79;97257.91;10470165;28;2922;-66
2024/01/28 02:02:32;;;;;;;;;;;;;;;19.17;45.31;97249.22;10468927;28;2981;-66
2024/01/28 02:07:32;;;;;;;;;;;;;;;19.16;45.54;97247.63;10466051;28;2854;-64
2024/01/28 02:12:32;;;;;;;;;;;;;;;19.16;45.82;97247.63;10471281;28;3198;-66
2024/01/28 02:17:32;;;;;;;;;;;;;;;19.15;45.28;97236.31;10481069;28;2966;-66
2024/01/28 02:22:33;;;;;;;;;;;;;;;19.12;44.37;97239.41;10470905;28;2874;-65
2024/01/28 02:27:34;;;;;;;;;;;;;;;19.07;43.92;97234.03;10468733;28;2829;-66
2024/01/28 02:32:34;;;;;;;;;;;;;;;19.02;44.83;97228.66;10467990;28;2920;-66
2024/01/28 02:37:34;;;;;;;;;;;;;;;19.00;45.37;97228.06;10469175;28;3063;-67
2024/01/28 02:42:35;;;;;;;;;;;;;;;18.97;45.72;97230.38;10464484;28;2845;-66
2024/01/28 02:47:35;;;;;;;;;;;;;;;18.94;45.74;97228.22;10468722;28;3370;-66
2024/01/28 02:52:35;;;;;;;;;;;;;;;18.91;45.68;97224.19;10468328;28;2873;-66
2024/01/28 02:57:35;;;;;;;;;;;;;;;18.94;46.96;97218.47;10466070;28;2889;-68
2024/01/28 03:02:39;;;;;;;;;;;;;;;18.98;45.62;97214.38;10464484;28;2882;-67
2024/01/28 03:07:40;;;;;;;;;;;;;;;18.98;44.94;97209.09;10466635;28;2842;-67
2024/01/28 03:12:40;;;;;;;;;;;;;;;18.98;44.46;97219.63;10467250;28;3238;-67
2024/01/28 03:17:43;;;;;;;;;;;;;;;18.98;43.73;97213.59;10461921;28;2841;-68
2024/01/28 03:22:43;;;;;;;;;;;;;;;18.97;43.84;97210.16;10465912;28;2806;-67
2024/01/28 03:27:44;;;;;;;;;;;;;;;18.97;43.61;97212.78;10463519;28;2853;-68
2024/01/28 03:32:44;;;;;;;;;;;;;;;18.97;43.12;97209.34;10468722;28;2818;-67
2024/01/28 03:37:46;;;;;;;;;;;;;;;18.95;42.74;97209.56;10467776;28;3070;-67
2024/01/28 03:42:46;;;;;;;;;;;;;;;18.96;42.61;97221.66;10469515;28;2805;-67
2024/01/28 03:47:47;;;;;;;;;;;;;;;18.93;42.46;97216.88;10497556;28;2849;-67
2024/01/28 03:52:47;;;;;;;;;;;;;;;18.93;42.40;97216.88;10466379;28;2934;-67
2024/01/28 03:57:47;;;;;;;;;;;;;;;18.93;42.30;97218.72;10499035;28;2790;-67
2024/01/28 04:02:47;;;;;;;;;;;;;;;18.91;41.89;97218.94;10471947;28;2841;-67
2024/01/28 04:07:48;;;;;;;;;;;;;;;18.92;41.94;97211.88;10466833;28;2869;-67
2024/01/28 04:12:48;;;;;;;;;;;;;;;18.90;41.67;97211.31;10470965;28;2870;-67
2024/01/28 04:17:48;;;;;;;;;;;;;;;18.88;41.48;97222.00;10471670;28;2936;-67
2024/01/28 04:22:48;;;;;;;;;;;;;;;18.87;41.20;97217.81;10474827;28;3047;-67
2024/01/28 04:27:49;;;;;;;;;;;;;;;18.86;41.11;97218.00;10475654;28;2845;-67
2024/01/28 04:32:49;;;;;;;;;;;;;;;18.85;41.16;97209.34;10479716;28;2994;-67
2024/01/28 04:37:49;;;;;;;;;;;;;;;18.84;41.03;97212.97;10472050;28;2940;-66
2024/01/28 04:42:50;;;;;;;;;;;;;;;18.83;40.98;97208.78;10473893;28;2750;-67
2024/01/28 04:47:50;;;;;;;;;;;;;;;18.81;40.74;97213.47;10469541;28;2901;-67
2024/01/28 04:52:51;;;;;;;;;;;;;;;18.81;40.67;97212.66;10474729;28;2934;-67
2024/01/28 04:57:51;;;;;;;;;;;;;;;18.79;40.64;97210.25;10469501;28;2925;-67
2024/01/28 05:02:55;;;;;;;;;;;;;;;18.78;40.25;97213.91;10471477;28;2849;-67
2024/01/28 05:07:55;;;;;;;;;;;;;;;18.79;40.23;97209.44;10471100;28;3041;-67
2024/01/28 05:12:55;;;;;;;;;;;;;;;18.77;40.36;97222.81;10472686;28;2856;-67
2024/01/28 05:17:56;;;;;;;;;;;;;;;18.76;40.23;97228.28;10475432;28;2804;-67
2024/01/28 05:22:59;;;;;;;;;;;;;;;18.75;40.09;97230.13;10472515;28;2801;-67
2024/01/28 05:28:01;;;;;;;;;;;;;;;18.73;40.14;97218.25;10474130;28;2879;-65
2024/01/28 05:33:01;;;;;;;;;;;;;;;18.72;40.01;97227.94;10504092;28;2846;-65
2024/01/28 05:38:01;;;;;;;;;;;;;;;18.72;39.86;97224.50;10472155;28;2971;-66
2024/01/28 05:43:02;;;;;;;;;;;;;;;18.68;39.59;97216.28;10473753;28;3426;-65
2024/01/28 05:48:03;;;;;;;;;;;;;;;18.67;39.72;97212.84;10471058;28;2931;-66
2024/01/28 05:53:03;;;;;;;;;;;;;;;18.66;39.49;97221.78;10470348;28;2905;-65
2024/01/28 05:58:03;;;;;;;;;;;;;;;18.67;39.49;97225.16;10470540;28;2846;-66
2024/01/28 06:03:04;;;;;;;;;;;;;;;18.65;39.47;97229.84;10474880;28;2869;-65
2024/01/28 06:08:05;;;;;;;;;;;;;;;18.64;39.32;97236.94;10470483;28;2870;-66
2024/01/28 06:13:05;;;;;;;;;;;;;;;18.62;39.09;97241.63;10471255;28;2952;-65
2024/01/28 06:18:05;;;;;;;;;;;;;;;18.61;39.15;97241.84;10470106;28;2889;-65
2024/01/28 06:23:06;;;;;;;;;;;;;;;18.61;39.07;97244.47;10469689;28;2954;-66
2024/01/28 06:28:06;;;;;;;;;;;;;;;18.60;38.97;97250.75;10469290;28;2887;-67
2024/01/28 06:33:06;;;;;;;;;;;;;;;18.59;39.04;97243.88;10471617;28;2842;-67
2024/01/28 06:38:07;;;;;;;;;;;;;;;18.57;38.95;97252.00;10468200;28;2912;-67
2024/01/28 06:43:07;;;;;;;;;;;;;;;18.56;38.82;97249.59;10466689;28;2954;-67
2024/01/28 06:48:07;;;;;;;;;;;;;;;18.55;38.70;97242.72;10470031;28;2908;-67
2024/01/28 06:53:08;;;;;;;;;;;;;;;18.54;38.80;97238.53;10477982;28;2849;-68
2024/01/28 06:58:08;;;;;;;;;;;;;;;18.54;38.77;97246.41;10468081;28;2929;-67
2024/01/28 07:03:09;;;;;;;;;;;;;;;18.53;38.70;97247.41;10463078;28;2889;-68
2024/01/28 07:08:10;;;;;;;;;;;;;;;18.52;38.69;97246.63;10468413;28;2830;-67
2024/01/28 07:13:10;;;;;;;;;;;;;;;18.52;38.49;97249.25;10467539;28;2930;-67
2024/01/28 07:18:10;;;;;;;;;;;;;;;18.56;38.47;97252.22;10466612;28;2873;-67
2024/01/28 07:23:10;;;;;;;;;;;;;;;18.62;38.79;97246.06;10463270;28;2859;-68
2024/01/28 07:28:11;;;;;;;;;;;;;;;18.72;40.23;97241.06;10467252;28;2786;-68
2024/01/28 07:33:12;;;;;;;;;;;;;;;18.84;41.18;97251.59;10466995;28;2809;-67
2024/01/28 07:38:13;;;;;;;;;;;;;;;18.90;40.53;97248.84;10468260;28;3012;-67
2024/01/28 07:43:13;;;;;;;;;;;;;;;19.00;42.12;97243.06;10466612;28;2864;-68
2024/01/28 07:48:13;;;;;;;;;;;;;;;19.05;41.55;97246.59;10492144;28;2885;-65
2024/01/28 07:53:13;;;;;;;;;;;;;;;19.11;42.36;97240.44;10468108;28;2847;-64
2024/01/28 07:58:14;;;;;;;;;;;;;;;19.17;43.31;97239.50;10467196;28;2933;-67
2024/01/28 08:03:14;;;;;;;;;;;;;;;19.23;41.93;97237.78;10470074;28;2831;-68
2024/01/28 08:08:14;;;;;;;;;;;;;;;19.28;43.44;97241.34;10471450;28;2937;-67
2024/01/28 08:13:15;;;;;;;;;;;;;;;19.35;44.48;97246.53;10468335;28;2817;-67
2024/01/28 08:18:15;;;;;;;;;;;;;;;19.38;42.73;97244.22;10468149;28;3270;-67
2024/01/28 08:23:15;;;;;;;;;;;;;;;19.43;43.12;97240.91;10468057;28;2839;-67
2024/01/28 08:28:16;;;;;;;;;;;;;;;19.45;44.60;97241.50;10465519;28;2913;-65
2024/01/28 08:33:16;;;;;;;;;;;;;;;19.51;43.89;97237.94;10455955;28;2910;-64
2024/01/28 08:38:16;;;;;;;;;;;;;;;19.57;42.59;97241.47;10463717;28;2848;-72
2024/01/28 08:43:17;;;;;;;;;;;;;;;19.59;43.81;97234.94;10467042;28;2916;-68
2024/01/28 08:48:17;;;;;;;;;;;;;;;19.60;42.71;97231.28;10468726;28;2815;-68
2024/01/28 08:53:17;;;;;;;;;;;;;;;19.64;43.11;97229.78;10463579;28;2866;-68
2024/01/28 08:58:17;;;;;;;;;;;;;;;19.66;42.59;97229.56;10465905;28;2880;-69
2024/01/28 09:03:18;;;;;;;;;;;;;;;19.69;42.60;97223.81;10471740;28;2933;-68
2024/01/28 09:08:18;;;;;;;;;;;;;;;19.75;42.77;97222.91;10471822;28;3230;-68
2024/01/28 09:13:18;;;;;;;;;;;;;;;19.83;42.06;97219.91;10472501;28;2910;-67
2024/01/28 09:18:19;;;;;;;;;;;;;;;19.78;42.56;97218.00;10463823;28;2925;-68
2024/01/28 09:23:19;;;;;;;;;;;;;;;19.81;42.22;97216.69;10468502;28;2799;-68
2024/01/28 09:28:19;;;;;;;;;;;;;;;19.83;41.92;97214.63;10466913;28;2891;-68
2024/01/28 09:33:20;;;;;;;;;;;;;;;19.88;41.80;97217.38;10469522;28;2849;-65
2024/01/28 09:38:21;;;;;;;;;;;;;;;19.91;42.71;97211.63;10464090;28;2960;-68
2024/01/28 09:43:28;;;;;;;;;;;;;;;19.93;41.95;97217.47;10467837;28;2885;-68
2024/01/28 09:48:28;;;;;;;;;;;;;;;19.95;42.01;97215.41;10494999;28;2870;-68
2024/01/28 09:53:29;;;;;;;;;;;;;;;19.96;42.50;97217.00;10464354;28;2795;-68
2024/01/28 09:58:29;;;;;;;;;;;;;;;20.02;41.90;97216.88;10464912;28;2902;-68
2024/01/28 10:03:30;;;;;;;;;;;;;;;20.05;41.46;97215.63;10463333;28;2789;-68
2024/01/28 10:08:30;;;;;;;;;;;;;;;20.07;42.29;97218.81;10495476;28;3077;-67
2024/01/28 10:13:30;;;;;;;;;;;;;;;20.09;42.51;97211.47;10467551;28;2856;-69
2024/01/28 10:18:31;;;;;;;;;;;;;;;20.12;41.19;97205.72;10467687;28;2790;-68
2024/01/28 10:23:37;;;;;;;;;;;;;;;20.15;40.72;97210.53;10470122;28;2925;-70
2024/01/28 10:28:38;;;;;;;;;;;;;;;20.16;41.68;97207.66;10466088;28;2858;-67
2024/01/28 10:33:38;;;;;;;;;;;;;;;20.21;41.56;97207.00;10449616;28;2910;-66
2024/01/28 10:38:38;;;;;;;;;;;;;;;20.22;40.80;97205.94;10463238;28;3017;-66
2024/01/28 10:43:39;;;;;;;;;;;;;;;20.24;40.58;97199.41;10495595;28;2859;-71
2024/01/28 10:48:40;;;;;;;;;;;;;;;20.17;43.72;97190.03;10471633;28;2849;-68
2024/01/28 10:53:40;;;;;;;;;;;;;;;20.27;43.55;97193.69;10468922;28;2905;-67
2024/01/28 10:58:40;;;;;;;;;;;;;;;20.15;42.87;97179.72;10461686;28;2855;-68
2024/01/28 11:03:41;;;;;;;;;;;;;;;20.16;42.02;97175.25;10466098;28;2869;-67
2024/01/28 11:08:41;;;;;;;;;;;;;;;20.20;41.30;97160.63;10461452;28;2943;-68
2024/01/28 11:13:42;;;;;;;;;;;;;;;20.23;41.21;97165.41;10467338;28;2865;-68
2024/01/28 11:18:54;;;;;;;;;;;;;;;20.27;41.13;97153.38;10484022;28;2852;-68
2024/01/28 11:23:57;;;;;;;;;;;;;;;20.31;41.36;97146.59;10465092;28;2914;-65
2024/01/28 11:28:57;;;;;;;;;;;;;;;20.36;41.78;97149.31;10466854;28;2826;-64
2024/01/28 11:34:07;;;;;;;;;;;;;;;20.38;41.42;97136.69;10468751;28;2873;-62
2024/01/28 11:39:09;;;;;;;;;;;;;;;20.39;41.65;97133.03;10469335;28;2972;-67
2024/01/28 11:44:09;;;;;;;;;;;;;;;20.43;42.02;97126.25;10447380;28;2876;-68
2024/01/28 11:49:09;;;;;;;;;;;;;;;20.48;42.04;97125.53;10462844;28;3037;-70
2024/01/28 11:54:09;;;;;;;;;;;;;;;20.53;42.39;97117.69;10468263;28;2937;-72
2024/01/28 11:59:10;;;;;;;;;;;;;;;20.57;42.67;97111.72;10463006;28;2846;-73
2024/01/28 12:04:10;;;;;;;;;;;;;;;20.63;43.62;97108.13;10463098;28;2802;-75
2024/01/28 12:09:10;;;;;;;;;;;;;;;20.67;43.63;97090.78;10469443;28;2949;-80
2024/01/28 12:14:11;;;;;;;;;;;;;;;20.74;44.36;97093.25;10468837;28;2866;-69
2024/01/28 12:19:14;;;;;;;;;;;;;;;20.77;43.78;97096.19;10466182;28;2798;-68
2024/01/28 12:24:14;;;;;;;;;;;;;;;20.76;44.04;97081.44;10446132;28;2881;-69
2024/01/28 12:29:14;;;;;;;;;;;;;;;20.79;43.98;97070.41;10462808;28;2822;-69
2024/01/28 12:34:17;;;;;;;;;;;;;;;20.81;43.62;97062.28;10474444;28;2832;-68
2024/01/28 12:39:18;;;;;;;;;;;;;;;20.83;44.32;97050.44;10478888;28;2904;-66
2024/01/28 12:44:18;;;;;;;;;;;;;;;20.84;43.98;97045.97;10512168;27;2878;-68
2024/01/28 12:49:18;;;;;;;;;;;;;;;20.85;44.41;97039.66;10471314;28;2848;-65
2024/01/28 12:54:18;;;;;;;;;;;;;;;20.89;44.73;97046.03;10471890;28;2794;-65
2024/01/28 12:59:19;;;;;;;;;;;;;;;20.87;44.06;97038.38;10474383;28;2857;-65
2024/01/28 13:04:19;;;;;;;;;;;;;;;20.89;44.49;97033.66;10502419;28;3132;-66
2024/01/28 13:09:20;;;;;;;;;;;;;;;20.89;44.27;97025.75;10474624;28;2863;-67
2024/01/28 13:14:21;;;;;;;;;;;;;;;20.90;44.41;97029.16;10474695;28;2860;-66
2024/01/28 13:19:21;;;;;;;;;;;;;;;20.90;44.69;97034.44;10472639;28;2874;-67
2024/01/28 13:24:21;;;;;;;;;;;;;;;20.89;44.45;97028.38;10476182;28;2889;-66
2024/01/28 13:29:25;;;;;;;;;;;;;;;20.88;44.35;97016.25;10475214;28;2853;-66
2024/01/28 13:34:25;;;;;;;;;;;;;;;20.89;44.33;97022.31;10467692;28;2961;-67
2024/01/28 13:39:25;;;;;;;;;;;;;;;20.89;43.96;97017.84;10479463;28;2940;-66
2024/01/28 13:44:26;;;;;;;;;;;;;;;20.89;44.62;97015.22;10474366;28;2822;-66
2024/01/28 13:49:26;;;;;;;;;;;;;;;20.93;44.17;97013.69;10480243;28;2766;-68
2024/01/28 13:54:26;;;;;;;;;;;;;;;20.95;43.91;97006.31;10479200;28;2875;-68
2024/01/28 13:59:27;;;;;;;;;;;;;;;20.95;44.43;97011.59;10473934;28;2795;-68
2024/01/28 14:04:27;;;;;;;;;;;;;;;20.93;44.46;97005.78;10471316;28;2846;-68
2024/01/28 14:09:27;;;;;;;;;;;;;;;20.93;44.36;97013.69;10476507;28;2823;-68
2024/01/28 14:14:27;;;;;;;;;;;;;;;20.92;44.26;97011.25;10476402;28;2746;-68
2024/01/28 14:19:29;;;;;;;;;;;;;;;20.89;44.05;97012.56;10478035;28;2877;-67
2024/01/28 14:24:29;;;;;;;;;;;;;;;20.87;43.95;97012.03;10472160;28;2778;-68
2024/01/28 14:29:29;;;;;;;;;;;;;;;20.80;45.05;97011.41;10471054;28;2869;-66
2024/01/28 14:34:29;;;;;;;;;;;;;;;20.79;46.48;97009.00;10474539;28;2814;-67
2024/01/28 14:39:30;;;;;;;;;;;;;;;20.76;46.59;97007.66;10472903;28;2971;-66
2024/01/28 14:44:31;;;;;;;;;;;;;;;20.73;46.16;97002.84;10477959;28;2846;-66
2024/01/28 14:49:32;;;;;;;;;;;;;;;20.72;46.16;97003.13;10476340;28;2782;-66
2024/01/28 14:54:32;;;;;;;;;;;;;;;20.66;45.85;96994.34;10471630;28;2898;-66
2024/01/28 14:59:32;;;;;;;;;;;;;;;20.66;45.71;96999.63;10473066;28;2850;-66
2024/01/28 15:04:32;;;;;;;;;;;;;;;20.66;45.36;97004.91;10471509;28;2789;-66
2024/01/28 15:09:33;;;;;;;;;;;;;;;20.64;45.36;97006.97;10471957;28;2932;-67
2024/01/28 15:14:33;;;;;;;;;;;;;;;20.66;45.01;97033.06;10472257;28;2965;-71
2024/01/28 15:19:33;;;;;;;;;;;;;;;20.65;44.26;97021.72;10474682;28;2848;-68
2024/01/28 15:24:34;;;;;;;;;;;;;;;20.65;44.38;97028.84;10470564;28;2873;-66
2024/01/28 15:29:34;;;;;;;;;;;;;;;20.65;44.44;97027.00;10472930;28;2921;-69
2024/01/28 15:34:34;;;;;;;;;;;;;;;20.67;43.90;97024.13;10468883;28;2921;-68
2024/01/28 15:39:35;;;;;;;;;;;;;;;20.68;44.60;97015.97;10472799;28;2971;-67
2024/01/28 15:44:35;;;;;;;;;;;;;;;20.71;44.22;97012.06;10468862;28;2850;-68
2024/01/28 15:49:36;;;;;;;;;;;;;;;20.73;44.60;97013.41;10468921;28;2845;-73
2024/01/28 15:54:36;;;;;;;;;;;;;;;20.80;49.05;97019.31;10465830;28;2850;-73
2024/01/28 15:59:38;;;;;;;;;;;;;;;20.83;51.32;97028.56;10472113;28;2798;-72
2024/01/28 16:04:38;;;;;;;;;;;;;;;20.87;51.76;97024.41;10471701;28;2814;-72
2024/01/28 16:09:38;;;;;;;;;;;;;;;20.89;52.52;97033.66;10477193;28;2821;-71
2024/01/28 16:14:39;;;;;;;;;;;;;;;20.88;52.96;97042.59;10474384;28;2888;-74
2024/01/28 16:19:39;;;;;;;;;;;;;;;20.93;53.15;97045.31;10474698;28;2810;-68
2024/01/28 16:24:39;;;;;;;;;;;;;;;20.95;53.49;97047.69;10485089;28;2215;-69
2024/01/28 16:29:40;;;;;;;;;;;;;;;21.00;52.36;97045.91;10496420;28;1941;-70
2024/01/28 16:34:40;;;;;;;;;;;;;;;21.02;51.22;97043.84;10487365;28;2790;-70
2024/01/28 16:39:40;;;;;;;;;;;;;;;21.08;51.06;97036.03;10476084;28;2963;-70
2024/01/28 16:44:40;;;;;;;;;;;;;;;21.08;50.43;97037.59;10472865;28;2975;-70
2024/01/28 16:49:41;;;;;;;;;;;;;;;21.13;50.89;97033.44;10470852;28;2869;-66
2024/01/28 16:54:41;;;;;;;;;;;;;;;21.05;47.58;97030.19;10464710;28;2913;-68
2024/01/28 16:59:44;;;;;;;;;;;;;;;20.99;47.06;97022.44;10471944;28;2851;-69
2024/01/28 17:04:44;;;;;;;;;;;;;;;20.95;46.63;97016.88;10474514;28;2941;-70
2024/01/28 17:09:44;;;;;;;;;;;;;;;20.88;46.38;97021.50;10477541;28;2770;-69
2024/01/28 17:14:44;;;;;;;;;;;;;;;20.96;45.46;97015.81;10471943;28;2891;-67
2024/01/28 17:19:45;;;;;;;;;;;;;;;20.96;46.02;97021.09;10473997;28;2893;-77
2024/01/28 17:24:45;;;;;;;;;;;;;;;20.99;47.03;97028.50;10476709;28;2842;-74
2024/01/28 17:29:45;;;;;;;;;;;;;;;20.85;45.87;97027.28;10470615;28;2959;-68
2024/01/28 17:34:45;;;;;;;;;;;;;;;20.91;45.89;97025.50;10468631;28;2942;-61
2024/01/28 17:39:46;;;;;;;;;;;;;;;20.89;45.61;97023.13;10472589;28;3089;-62
2024/01/28 17:44:46;;;;;;;;;;;;;;;20.94;45.80;97017.91;10468669;28;2947;-65
2024/01/28 17:49:46;;;;;;;;;;;;;;;20.96;45.50;97023.72;10469248;28;2838;-64
2024/01/28 17:54:47;;;;;;;;;;;;;;;20.94;45.98;97015.25;10472011;28;2869;-65
2024/01/28 17:59:47;;;;;;;;;;;;;;;21.03;46.98;97034.13;10468662;28;2845;-65
2024/01/28 18:04:48;;;;;;;;;;;;;;;20.97;45.46;97041.16;10477544;28;2896;-62
2024/01/28 18:09:48;;;;;;;;;;;;;;;20.98;45.36;97040.09;10474346;28;2942;-62
2024/01/28 18:14:49;;;;;;;;;;;;;;;20.90;44.96;97044.97;10467015;28;2904;-65
2024/01/28 18:19:50;;;;;;;;;;;;;;;20.90;46.46;97045.78;10468155;28;2805;-62
2024/01/28 18:24:50;;;;;;;;;;;;;;;20.93;45.90;97050.59;10467457;28;2901;-61
2024/01/28 18:29:53;;;;;;;;;;;;;;;20.95;46.48;97042.41;10477487;28;2873;-61
2024/01/28 18:34:54;;;;;;;;;;;;;;;20.94;45.42;97041.63;10481679;28;2232;-60
2024/01/28 18:39:54;;;;;;;;;;;;;;;20.96;44.55;97044.81;10493135;28;2948;-59
2024/01/28 18:44:56;;;;;;;;;;;;;;;20.88;45.09;97042.59;10485627;28;1730;-61
2024/01/28 18:49:56;;;;;;;;;;;;;;;20.96;45.66;97044.00;10485429;28;1906;-62
2024/01/28 18:54:56;;;;;;;;;;;;;;;20.84;45.16;97038.84;10481429;28;2652;-62
2024/01/28 18:59:56;;;;;;;;;;;;;;;20.89;44.92;97041.56;10481214;28;1668;-63
2024/01/28 19:04:58;;;;;;;;;;;;;;;20.93;44.68;97044.50;10483567;28;1647;-62
2024/01/28 19:09:58;;;;;;;;;;;;;;;20.83;45.48;97045.19;10481966;28;1964;-62
2024/01/28 19:14:59;;;;;;;;;;;;;;;20.87;45.17;97032.31;10480451;28;1642;-62
2024/01/28 19:20:00;;;;;;;;;;;;;;;20.87;44.58;97034.94;10483807;28;1603;-62
2024/01/28 19:25:01;;;;;;;;;;;;;;;20.90;45.35;97034.44;10484366;28;2189;-61
2024/01/28 19:30:01;;;;;;;;;;;;;;;20.92;45.58;97035.78;10483017;28;1969;-61
2024/01/28 19:35:01;;;;;;;;;;;;;;;21.00;44.19;97037.19;10482198;28;1473;-62
2024/01/28 19:40:02;;;;;;;;;;;;;;;21.03;46.04;97049.94;10472924;28;2944;-62
2024/01/28 19:45:03;;;;;;;;;;;;;;;21.13;45.94;97046.59;10483729;28;1621;-62
2024/01/28 19:50:03;;;;;;;;;;;;;;;21.11;49.22;97030.25;10481251;28;1902;-59
2024/01/28 19:55:04;;;;;;;;;;;;;;;21.15;47.02;97032.16;10482888;28;1800;-60
2024/01/28 20:00:05;;;;;;;;;;;;;;;21.23;49.37;97028.25;10482279;28;1463;-59
2024/01/28 20:05:05;;;;;;;;;;;;;;;21.12;47.37;97031.84;10483358;28;1863;-59
2024/01/28 20:10:07;;;;;;;;;;;;;;;21.18;49.22;97038.78;10480191;28;1905;-61
2024/01/28 20:15:08;;;;;;;;;;;;;;;21.25;48.18;97026.19;10481318;28;1599;-61
2024/01/28 20:20:10;;;;;;;;;;;;;;;21.28;46.58;97031.78;10479371;28;1518;-61
2024/01/28 20:25:11;;;;;;;;;;;;;;;21.25;47.32;97026.19;10483063;28;1505;-60
2024/01/28 20:30:11;;;;;;;;;;;;;;;21.13;46.48;97030.78;10480085;28;1905;-60
2024/01/28 20:35:13;;;;;;;;;;;;;;;21.17;46.43;97037.16;10482313;28;2408;-60
2024/01/28 20:40:13;;;;;;;;;;;;;;;21.03;45.56;97028.84;10481122;28;2968;-60
2024/01/28 20:45:14;;;;;;;;;;;;;;;20.90;45.24;97029.97;10471327;28;1497;-60
2024/01/28 20:50:14;;;;;;;;;;;;;;;20.78;46.44;97023.22;10480321;28;1987;-60
2024/01/28 20:55:15;;;;;;;;;;;;;;;20.69;46.69;97029.97;10486970;28;1809;-60
2024/01/28 21:00:15;;;;;;;;;;;;;;;20.65;46.62;97029.63;10484035;28;1528;-63
2024/01/28 21:05:17;;;;;;;;;;;;;;;20.56;47.19;97028.47;10489385;28;1805;-64
2024/01/28 21:10:17;;;;;;;;;;;;;;;20.54;46.45;97017.38;10490627;28;1882;-63
2024/01/28 21:15:17;;;;;;;;;;;;;;;20.47;47.75;97011.47;10487050;28;1462;-63
2024/01/28 21:20:18;;;;;;;;;;;;;;;20.37;47.17;97008.69;10483025;28;2797;-63
2024/01/28 21:25:18;;;;;;;;;;;;;;;20.34;47.96;97013.66;10469025;28;2967;-62
2024/01/28 21:30:18;;;;;;;;;;;;;;;20.28;47.41;97015.41;10469828;28;2896;-64
2024/01/28 21:35:18;;;;;;;;;;;;;;;20.23;47.11;97017.97;10474777;28;2844;-62
2024/01/28 21:40:19;;;;;;;;;;;;;;;20.19;48.06;97006.31;10468717;28;2938;-64
2024/01/28 21:45:19;;;;;;;;;;;;;;;20.17;48.22;96997.84;10466865;28;2862;-63
2024/01/28 21:50:19;;;;;;;;;;;;;;;20.10;47.31;97002.47;10465725;28;2866;-62
2024/01/28 21:55:19;;;;;;;;;;;;;;;20.09;46.65;97006.16;10475153;28;2857;-62
2024/01/28 22:00:20;;;;;;;;;;;;;;;20.04;48.16;97003.44;10497096;28;3239;-62
2024/01/28 22:05:20;;;;;;;;;;;;;;;20.04;47.89;96998.16;10468024;28;2802;-62
2024/01/28 22:10:20;;;;;;;;;;;;;;;20.03;48.40;96996.59;10467861;28;2960;-62
2024/01/28 22:15:21;;;;;;;;;;;;;;;20.00;48.49;96997.06;10466646;28;2905;-61
2024/01/28 22:20:21;;;;;;;;;;;;;;;19.99;48.46;96990.97;10468773;28;2831;-62
2024/01/28 22:25:21;;;;;;;;;;;;;;;19.97;46.44;96989.66;10469371;28;2854;-62
2024/01/28 22:30:23;;;;;;;;;;;;;;;19.94;48.31;96988.28;10469422;28;2840;-61
2024/01/28 22:35:23;;;;;;;;;;;;;;;19.91;48.51;96991.38;10465033;28;2842;-61
2024/01/28 22:40:23;;;;;;;;;;;;;;;19.90;47.52;96996.88;10469247;28;2979;-61
2024/01/28 22:45:24;;;;;;;;;;;;;;;19.86;48.32;96993.16;10465443;28;2892;-61
2024/01/28 22:50:24;;;;;;;;;;;;;;;19.85;46.68;96988.91;10472940;28;2924;-62
2024/01/28 22:55:24;;;;;;;;;;;;;;;19.82;46.39;97006.00;10467992;28;2948;-61
2024/01/28 23:00:26;;;;;;;;;;;;;;;19.81;47.89;97004.38;10468643;28;2896;-62
2024/01/28 23:05:27;;;;;;;;;;;;;;;19.76;48.36;96987.72;10464790;28;2965;-62
2024/01/28 23:10:27;;;;;;;;;;;;;;;19.76;46.09;96992.97;10470461;28;2941;-61
2024/01/28 23:15:27;;;;;;;;;;;;;;;19.72;47.75;96997.91;10466185;28;2871;-61
2024/01/28 23:20:27;;;;;;;;;;;;;;;19.70;46.63;97005.22;10467317;28;2856;-62
2024/01/28 23:25:28;;;;;;;;;;;;;;;19.67;46.93;97005.72;10468836;28;2830;-61
2024/01/28 23:30:28;;;;;;;;;;;;;;;19.65;47.27;96997.28;10468382;28;2870;-61
2024/01/28 23:35:28;;;;;;;;;;;;;;;19.64;47.50;96989.63;10468758;28;2843;-61
2024/01/28 23:40:29;;;;;;;;;;;;;;;19.62;46.57;96991.69;10465693;28;2954;-61
2024/01/28 23:45:29;;;;;;;;;;;;;;;19.60;45.56;96985.88;10462498;28;2886;-61
2024/01/28 23:50:29;;;;;;;;;;;;;;;19.58;46.89;96975.56;10465766;28;2877;-61
2024/01/28 23:55:30;;;;;;;;;;;;;;;19.55;46.90;96968.16;10468413;28;2798;-61
